St. Johns River — WDD9610 — position and weather

sailwx.info

Track history (hours):
 
Tides and Currents Weather Stations Pressure Air Temp Water Temp Dewpoint Dewpoint Depression Visibility Wind Speed Wind Dir Waves Ship Positions

St. Johns River

Owner: Great Lakes Dredge & Dock Company, LLC., Oak Brook, IL. More information available from US FCC via Universal Licensing System and Coast Guard Vessel Documentation Center.

Last reported at 2018-Feb-18 04:24 UTC. Time now 2018-Feb-18 04:49 UTC.
Position N 32°01' W 080°53'.

Length 19 m; draft 3.1 m.

Type: Port tender. MMSI: 367313760.

Date/timePositionNaut miles runAvg speedWind from/ knotsBaromVisibWave heightAir tempDewpointWater temp
2018-Feb-18 04:24N 32°01' W 080°53'0 0.0
2018-Feb-18 04:00N 32°01' W 080°53'0 0.0
2018-Feb-18 03:29N 32°01' W 080°53'0 0.0
2018-Feb-18 02:58N 32°01' W 080°53'0 0.0
2018-Feb-18 02:28N 32°01' W 080°53'0 0.0
2018-Feb-18 01:59N 32°01' W 080°53'0 0.0
2018-Feb-18 01:30N 32°01' W 080°53'0 0.0
2018-Feb-18 01:00N 32°01' W 080°53'0 0.0
2018-Feb-18 00:29N 32°01' W 080°53'0 0.0
2018-Feb-18 00:00N 32°01' W 080°53'0 0.0
2018-Feb-17 23:30N 32°01' W 080°53'3 5.4
2018-Feb-17 23:01N 32°02' W 080°50'3 5.4
2018-Feb-17 22:30N 32°01' W 080°53'0 0.0
2018-Feb-17 21:59N 32°01' W 080°53'0 0.0
2018-Feb-17 19:14N 32°01' W 080°53'0 0.0
2018-Feb-17 19:00N 32°01' W 080°53'0 0.0
2018-Feb-17 18:30N 32°01' W 080°53'3 5.2
2018-Feb-17 18:00N 32°02' W 080°50'6 7.8
2018-Feb-17 17:17N 31°59' W 080°45'311.2
2018-Feb-17 17:01N 32°00' W 080°48'4 8.5
2018-Feb-17 16:30N 32°01' W 080°53'0 0.0
2018-Feb-17 16:00N 32°01' W 080°53'0 0.0
2018-Feb-17 15:30N 32°01' W 080°53'2 3.2
2018-Feb-17 15:00N 32°02' W 080°52'2 3.7
2018-Feb-17 14:31N 32°02' W 080°54'2 3.4
2018-Feb-17 14:01N 32°01' W 080°53'0 0.0
2018-Feb-17 13:30N 32°01' W 080°53'0 0.4
2018-Feb-17 13:00N 32°01' W 080°53'814.1
2018-Feb-17 12:25N 31°58' W 080°44'512.7
2018-Feb-17 12:00N 32°01' W 080°49'4 5.5
2018-Feb-17 11:21N 32°01' W 080°53'0 0.0
2018-Feb-17 11:00N 32°01' W 080°53'0 0.0
2018-Feb-17 10:28N 32°01' W 080°53'0 0.0
2018-Feb-17 09:06N 32°01' W 080°53'0 0.0
2018-Feb-17 08:20N 32°01' W 080°53'0 0.0
2018-Feb-17 07:59N 32°01' W 080°53'0 0.0
2018-Feb-17 07:29N 32°01' W 080°53'0 0.0
2018-Feb-17 06:33N 32°01' W 080°53'0 0.0
2018-Feb-17 06:16N 32°01' W 080°53'0 0.0
2018-Feb-17 05:58N 32°01' W 080°53'0 0.0
2018-Feb-17 05:28N 32°01' W 080°53'0 0.0
2018-Feb-17 05:00N 32°01' W 080°53'0 0.0
2018-Feb-17 04:29N 32°01' W 080°53'0 0.0
2018-Feb-17 03:59N 32°01' W 080°53'0 0.0
2018-Feb-17 03:30N 32°01' W 080°53'0 0.0
2018-Feb-17 03:00N 32°01' W 080°53'0 0.0
2018-Feb-17 02:30N 32°01' W 080°53'0 0.0
2018-Feb-17 01:50N 32°01' W 080°53'0 0.0
2018-Feb-17 01:30N 32°01' W 080°53'1 2.2
2018-Feb-17 01:00N 32°01' W 080°52'1 1.7
2018-Feb-17 00:30N 32°02' W 080°52'916.7
2018-Feb-16 23:59N 31°56' W 080°45'5 9.7
2018-Feb-16 23:30N 32°00' W 080°48'5 9.2
2018-Feb-16 23:00N 32°01' W 080°53'0 0.3
2018-Feb-16 22:30N 32°01' W 080°53'0 0.0
2018-Feb-16 21:59N 32°01' W 080°53'0 0.0
2018-Feb-16 21:19N 32°01' W 080°53'0 0.0
2018-Feb-16 20:58N 32°01' W 080°53'0 0.1
2018-Feb-16 20:29N 32°01' W 080°53'0 0.0
2018-Feb-16 19:53N 32°01' W 080°53'0 0.0
2018-Feb-16 19:26N 32°01' W 080°53'0 0.0
2018-Feb-16 19:00N 32°01' W 080°53'0 0.0
2018-Feb-16 18:30N 32°01' W 080°53'3 5.6
2018-Feb-16 18:00N 32°02' W 080°50'611.6
2018-Feb-16 17:30N 31°57' W 080°46'612.5
2018-Feb-16 17:00N 32°02' W 080°51'2 3.4
2018-Feb-16 16:30N 32°01' W 080°53'0 0.0
2018-Feb-16 16:00N 32°01' W 080°53'0 0.0
2018-Feb-16 15:30N 32°01' W 080°53'0 0.0
2018-Feb-16 14:59N 32°01' W 080°53'0 0.0
2018-Feb-16 14:30N 32°01' W 080°53'4 8.4
2018-Feb-16 14:01N 32°04' W 080°57'4 8.1
2018-Feb-16 13:30N 32°02' W 080°52'4 6.6
2018-Feb-16 12:57N 32°01' W 080°48'7 8.7
2018-Feb-16 12:07N 31°57' W 080°41'216.6
2018-Feb-16 11:58N 31°58' W 080°43'715.6
2018-Feb-16 11:31N 32°02' W 080°50'3 5.3
2018-Feb-16 11:00N 32°01' W 080°53'0 0.0
2018-Feb-16 10:30N 32°01' W 080°53'0 0.0
2018-Feb-16 10:00N 32°01' W 080°53'0 0.0
2018-Feb-16 09:30N 32°01' W 080°53'0 0.0
2018-Feb-16 09:00N 32°01' W 080°53'0 0.0
2018-Feb-16 08:30N 32°01' W 080°53'0 0.0
2018-Feb-16 08:00N 32°01' W 080°53'0 0.0
2018-Feb-16 07:29N 32°01' W 080°53'0 0.0
2018-Feb-16 07:00N 32°01' W 080°53'0 0.0
2018-Feb-16 06:30N 32°01' W 080°53'0 0.0
2018-Feb-16 05:58N 32°01' W 080°53'0 0.0
2018-Feb-16 05:30N 32°01' W 080°53'0 0.0
2018-Feb-16 05:00N 32°01' W 080°53'2 4.0
2018-Feb-16 04:29N 32°02' W 080°51'2 4.4
2018-Feb-16 04:00N 32°01' W 080°53'0 0.0
2018-Feb-16 03:16N 32°01' W 080°53'0 0.0
2018-Feb-16 02:57N 32°01' W 080°53'0 0.0
2018-Feb-16 02:29N 32°01' W 080°53'0 0.0
2018-Feb-16 00:39N 32°01' W 080°53'213.0
2018-Feb-16 00:28N 32°02' W 080°51'812.3
2018-Feb-15 23:47N 31°58' W 080°42'517.0
2018-Feb-15 23:29N 32°00' W 080°48'4 8.7
2018-Feb-15 23:00N 32°01' W 080°52'1 1.6
2018-Feb-15 22:30N 32°01' W 080°53'0 0.0
2018-Feb-15 22:00N 32°01' W 080°53'0 0.0
2018-Feb-15 21:30N 32°01' W 080°53'0 0.0
2018-Feb-15 20:59N 32°01' W 080°53'0 0.0
2018-Feb-15 20:30N 32°01' W 080°53'0 0.0
2018-Feb-15 19:59N 32°01' W 080°53'8 6.2
2018-Feb-15 18:42N 31°58' W 080°44'317.0
2018-Feb-15 18:31N 31°60' W 080°47'5 4.5
2018-Feb-15 17:24N 32°01' W 080°53'0 0.0
2018-Feb-15 16:54N 32°01' W 080°53'0 0.1
2018-Feb-15 16:24N 32°01' W 080°53'0 0.1
2018-Feb-15 16:00N 32°01' W 080°53'0 0.0
2018-Feb-15 15:30N 32°01' W 080°53'0 0.0
2018-Feb-15 14:58N 32°01' W 080°53'2 4.3
2018-Feb-15 14:30N 32°02' W 080°51'510.6
2018-Feb-15 14:00N 32°04' W 080°57'5 9.2
2018-Feb-15 13:30N 32°01' W 080°53'8 5.7
2018-Feb-15 12:01N 31°56' W 080°45'015.4
2018-Feb-15 12:00N 31°56' W 080°45'612.0
2018-Feb-15 11:30N 32°01' W 080°49'4 0.3
2018-Feb-14 22:35N 32°01' W 080°53'0 0.6
2018-Feb-14 22:29N 32°01' W 080°53'0 0.1
2018-Feb-14 22:00N 32°01' W 080°53'0 0.0
2018-Feb-14 21:28N 32°01' W 080°53'0 0.0
2018-Feb-14 20:58N 32°01' W 080°53'0 0.0
2018-Feb-14 20:05N 32°01' W 080°53'0 0.0
2018-Feb-14 19:53N 32°01' W 080°53'0 0.0
2018-Feb-14 19:30N 32°01' W 080°53'0 0.0
2018-Feb-14 19:00N 32°01' W 080°53'0 0.6
2018-Feb-14 18:30N 32°01' W 080°53'0 0.4
2018-Feb-14 17:59N 32°01' W 080°53'0 0.7
2018-Feb-14 17:30N 32°01' W 080°53'0 0.0
2018-Feb-14 17:00N 32°01' W 080°53'0 0.0
2018-Feb-14 16:29N 32°01' W 080°53'0 0.0
2018-Feb-14 16:00N 32°01' W 080°53'0 0.0
2018-Feb-14 15:30N 32°01' W 080°53'0 0.0
2018-Feb-14 14:59N 32°01' W 080°53'0 0.0
2018-Feb-14 14:30N 32°01' W 080°53'0 0.0
2018-Feb-14 14:00N 32°01' W 080°53'0 0.0
2018-Feb-14 13:30N 32°01' W 080°53'0 0.0
2018-Feb-14 12:58N 32°01' W 080°53'0 0.5
2018-Feb-14 12:30N 32°01' W 080°53'0 0.0
2018-Feb-13 22:04N 32°01' W 080°53'0 0.3
2018-Feb-13 22:01N 32°01' W 080°53'0 0.7
2018-Feb-13 21:30N 32°01' W 080°53'0 0.0
2018-Feb-13 21:00N 32°01' W 080°53'0 0.0
2018-Feb-13 20:28N 32°01' W 080°53'0 0.1
2018-Feb-13 20:00N 32°01' W 080°53'0 0.1
2018-Feb-13 19:30N 32°01' W 080°53'0 0.0
2018-Feb-13 18:59N 32°01' W 080°53'0 0.0
2018-Feb-13 18:30N 32°01' W 080°53'0 0.7
2018-Feb-13 18:00N 32°01' W 080°53'0 0.0
2018-Feb-13 17:30N 32°01' W 080°53'0 0.0
2018-Feb-13 17:01N 32°01' W 080°53'0 0.0
2018-Feb-13 16:31N 32°01' W 080°53'0 0.0
2018-Feb-13 16:01N 32°01' W 080°53'0 0.0
2018-Feb-13 15:31N 32°01' W 080°53'0 0.0
2018-Feb-13 15:01N 32°01' W 080°53'0 0.0
2018-Feb-13 14:31N 32°01' W 080°53'0 0.0
2018-Feb-12 23:07N 32°01' W 080°53'0 2.2
2018-Feb-12 23:00N 32°01' W 080°53'0 0.6
2018-Feb-12 22:30N 32°01' W 080°53'0 0.1
2018-Feb-12 22:00N 32°01' W 080°53'0 0.7
2018-Feb-12 21:30N 32°01' W 080°53'0 0.0
2018-Feb-12 20:59N 32°01' W 080°53'2 3.9
2018-Feb-12 20:30N 32°02' W 080°54'2 3.6
2018-Feb-12 20:00N 32°01' W 080°53'0 0.2
2018-Feb-12 19:30N 32°01' W 080°53'0 0.0
2018-Feb-12 19:01N 32°01' W 080°53'0 0.0
2018-Feb-12 18:30N 32°01' W 080°53'0 0.0
2018-Feb-12 18:00N 32°01' W 080°53'0 0.0
2018-Feb-12 17:30N 32°01' W 080°53'0 0.0
2018-Feb-12 16:56N 32°01' W 080°53'0 0.0
2018-Feb-12 16:29N 32°01' W 080°53'0 0.0
2018-Feb-12 16:01N 32°01' W 080°53'1 2.5
2018-Feb-12 15:29N 32°02' W 080°53'1 2.7
2018-Feb-12 15:00N 32°02' W 080°54'0 0.1
2018-Feb-12 14:29N 32°02' W 080°54'0 0.2
2018-Feb-12 14:01N 32°02' W 080°54'0 0.2
2018-Feb-12 13:30N 32°02' W 080°54'2 2.8
2018-Feb-12 12:55N 32°01' W 080°53'0 0.0
2018-Feb-12 12:30N 32°01' W 080°53'0 0.0
2018-Feb-12 11:59N 32°01' W 080°53'0 0.0
2018-Feb-12 11:29N 32°01' W 080°53'0 0.0
2018-Feb-12 11:00N 32°01' W 080°53'0 0.0
2018-Feb-12 10:30N 32°01' W 080°53'0 0.0
2018-Feb-11 16:39N 32°01' W 080°53'0 0.0
2018-Feb-11 16:31N 32°01' W 080°53'0 0.0
2018-Feb-11 16:01N 32°01' W 080°53'0 0.0
2018-Feb-11 15:29N 32°01' W 080°53'0 0.0
2018-Feb-11 14:56N 32°01' W 080°53'0 0.0
2018-Feb-11 14:30N 32°01' W 080°53'0 0.0
2018-Feb-11 13:58N 32°01' W 080°53'0 0.0
2018-Feb-11 13:30N 32°01' W 080°53'0 0.0
2018-Feb-11 11:37N 32°01' W 080°53'0 0.1
2018-Feb-11 11:30N 32°01' W 080°53'0 0.0
2018-Feb-10 21:24N 32°01' W 080°53'0 0.4
2018-Feb-10 21:00N 32°01' W 080°53'  
Track history (hours):
 
Tides and Currents Weather Stations Pressure Air Temp Water Temp Dewpoint Dewpoint Depression Visibility Wind Speed Wind Dir Waves Ship Positions

St. Johns River

Owner: Great Lakes Dredge & Dock Company, LLC., Oak Brook, IL. More information available from US FCC via Universal Licensing System and Coast Guard Vessel Documentation Center.

Last reported at 2018-Feb-18 04:24 UTC. Time now 2018-Feb-18 04:49 UTC.
Position N 32°01' W 080°53'.

Length 19 m; draft 3.1 m.

Type: Port tender. MMSI: 367313760.

Date/timePositionNaut miles runAvg speedWind from/ knotsBaromVisibWave heightAir tempDewpointWater temp
2018-Feb-18 04:24N 32°01' W 080°53'0 0.0
2018-Feb-18 04:00N 32°01' W 080°53'0 0.0
2018-Feb-18 03:29N 32°01' W 080°53'0 0.0
2018-Feb-18 02:58N 32°01' W 080°53'0 0.0
2018-Feb-18 02:28N 32°01' W 080°53'0 0.0
2018-Feb-18 01:59N 32°01' W 080°53'0 0.0
2018-Feb-18 01:30N 32°01' W 080°53'0 0.0
2018-Feb-18 01:00N 32°01' W 080°53'0 0.0
2018-Feb-18 00:29N 32°01' W 080°53'0 0.0
2018-Feb-18 00:00N 32°01' W 080°53'0 0.0
2018-Feb-17 23:30N 32°01' W 080°53'3 5.4
2018-Feb-17 23:01N 32°02' W 080°50'3 5.4
2018-Feb-17 22:30N 32°01' W 080°53'0 0.0
2018-Feb-17 21:59N 32°01' W 080°53'0 0.0
2018-Feb-17 19:14N 32°01' W 080°53'0 0.0
2018-Feb-17 19:00N 32°01' W 080°53'0 0.0
2018-Feb-17 18:30N 32°01' W 080°53'3 5.2
2018-Feb-17 18:00N 32°02' W 080°50'6 7.8
2018-Feb-17 17:17N 31°59' W 080°45'311.2
2018-Feb-17 17:01N 32°00' W 080°48'4 8.5
2018-Feb-17 16:30N 32°01' W 080°53'0 0.0
2018-Feb-17 16:00N 32°01' W 080°53'0 0.0
2018-Feb-17 15:30N 32°01' W 080°53'2 3.2
2018-Feb-17 15:00N 32°02' W 080°52'2 3.7
2018-Feb-17 14:31N 32°02' W 080°54'2 3.4
2018-Feb-17 14:01N 32°01' W 080°53'0 0.0
2018-Feb-17 13:30N 32°01' W 080°53'0 0.4
2018-Feb-17 13:00N 32°01' W 080°53'814.1
2018-Feb-17 12:25N 31°58' W 080°44'512.7
2018-Feb-17 12:00N 32°01' W 080°49'4 5.5
2018-Feb-17 11:21N 32°01' W 080°53'0 0.0
2018-Feb-17 11:00N 32°01' W 080°53'0 0.0
2018-Feb-17 10:28N 32°01' W 080°53'0 0.0
2018-Feb-17 09:06N 32°01' W 080°53'0 0.0
2018-Feb-17 08:20N 32°01' W 080°53'0 0.0
2018-Feb-17 07:59N 32°01' W 080°53'0 0.0
2018-Feb-17 07:29N 32°01' W 080°53'0 0.0
2018-Feb-17 06:33N 32°01' W 080°53'0 0.0
2018-Feb-17 06:16N 32°01' W 080°53'0 0.0
2018-Feb-17 05:58N 32°01' W 080°53'0 0.0
2018-Feb-17 05:28N 32°01' W 080°53'0 0.0
2018-Feb-17 05:00N 32°01' W 080°53'0 0.0
2018-Feb-17 04:29N 32°01' W 080°53'0 0.0
2018-Feb-17 03:59N 32°01' W 080°53'0 0.0
2018-Feb-17 03:30N 32°01' W 080°53'0 0.0
2018-Feb-17 03:00N 32°01' W 080°53'0 0.0
2018-Feb-17 02:30N 32°01' W 080°53'0 0.0
2018-Feb-17 01:50N 32°01' W 080°53'0 0.0
2018-Feb-17 01:30N 32°01' W 080°53'1 2.2
2018-Feb-17 01:00N 32°01' W 080°52'1 1.7
2018-Feb-17 00:30N 32°02' W 080°52'916.7
2018-Feb-16 23:59N 31°56' W 080°45'5 9.7
2018-Feb-16 23:30N 32°00' W 080°48'5 9.2
2018-Feb-16 23:00N 32°01' W 080°53'0 0.3
2018-Feb-16 22:30N 32°01' W 080°53'0 0.0
2018-Feb-16 21:59N 32°01' W 080°53'0 0.0
2018-Feb-16 21:19N 32°01' W 080°53'0 0.0
2018-Feb-16 20:58N 32°01' W 080°53'0 0.1
2018-Feb-16 20:29N 32°01' W 080°53'0 0.0
2018-Feb-16 19:53N 32°01' W 080°53'0 0.0
2018-Feb-16 19:26N 32°01' W 080°53'0 0.0
2018-Feb-16 19:00N 32°01' W 080°53'0 0.0
2018-Feb-16 18:30N 32°01' W 080°53'3 5.6
2018-Feb-16 18:00N 32°02' W 080°50'611.6
2018-Feb-16 17:30N 31°57' W 080°46'612.5
2018-Feb-16 17:00N 32°02' W 080°51'2 3.4
2018-Feb-16 16:30N 32°01' W 080°53'0 0.0
2018-Feb-16 16:00N 32°01' W 080°53'0 0.0
2018-Feb-16 15:30N 32°01' W 080°53'0 0.0
2018-Feb-16 14:59N 32°01' W 080°53'0 0.0
2018-Feb-16 14:30N 32°01' W 080°53'4 8.4
2018-Feb-16 14:01N 32°04' W 080°57'4 8.1
2018-Feb-16 13:30N 32°02' W 080°52'4 6.6
2018-Feb-16 12:57N 32°01' W 080°48'7 8.7
2018-Feb-16 12:07N 31°57' W 080°41'216.6
2018-Feb-16 11:58N 31°58' W 080°43'715.6
2018-Feb-16 11:31N 32°02' W 080°50'3 5.3
2018-Feb-16 11:00N 32°01' W 080°53'0 0.0
2018-Feb-16 10:30N 32°01' W 080°53'0 0.0
2018-Feb-16 10:00N 32°01' W 080°53'0 0.0
2018-Feb-16 09:30N 32°01' W 080°53'0 0.0
2018-Feb-16 09:00N 32°01' W 080°53'0 0.0
2018-Feb-16 08:30N 32°01' W 080°53'0 0.0
2018-Feb-16 08:00N 32°01' W 080°53'0 0.0
2018-Feb-16 07:29N 32°01' W 080°53'0 0.0
2018-Feb-16 07:00N 32°01' W 080°53'0 0.0
2018-Feb-16 06:30N 32°01' W 080°53'0 0.0
2018-Feb-16 05:58N 32°01' W 080°53'0 0.0
2018-Feb-16 05:30N 32°01' W 080°53'0 0.0
2018-Feb-16 05:00N 32°01' W 080°53'2 4.0
2018-Feb-16 04:29N 32°02' W 080°51'2 4.4
2018-Feb-16 04:00N 32°01' W 080°53'0 0.0
2018-Feb-16 03:16N 32°01' W 080°53'0 0.0
2018-Feb-16 02:57N 32°01' W 080°53'0 0.0
2018-Feb-16 02:29N 32°01' W 080°53'0 0.0
2018-Feb-16 00:39N 32°01' W 080°53'213.0
2018-Feb-16 00:28N 32°02' W 080°51'812.3
2018-Feb-15 23:47N 31°58' W 080°42'517.0
2018-Feb-15 23:29N 32°00' W 080°48'4 8.7
2018-Feb-15 23:00N 32°01' W 080°52'1 1.6
2018-Feb-15 22:30N 32°01' W 080°53'0 0.0
2018-Feb-15 22:00N 32°01' W 080°53'0 0.0
2018-Feb-15 21:30N 32°01' W 080°53'0 0.0
2018-Feb-15 20:59N 32°01' W 080°53'0 0.0
2018-Feb-15 20:30N 32°01' W 080°53'0 0.0
2018-Feb-15 19:59N 32°01' W 080°53'8 6.2
2018-Feb-15 18:42N 31°58' W 080°44'317.0
2018-Feb-15 18:31N 31°60' W 080°47'5 4.5
2018-Feb-15 17:24N 32°01' W 080°53'0 0.0
2018-Feb-15 16:54N 32°01' W 080°53'0 0.1
2018-Feb-15 16:24N 32°01' W 080°53'0 0.1
2018-Feb-15 16:00N 32°01' W 080°53'0 0.0
2018-Feb-15 15:30N 32°01' W 080°53'0 0.0
2018-Feb-15 14:58N 32°01' W 080°53'2 4.3
2018-Feb-15 14:30N 32°02' W 080°51'510.6
2018-Feb-15 14:00N 32°04' W 080°57'5 9.2
2018-Feb-15 13:30N 32°01' W 080°53'8 5.7
2018-Feb-15 12:01N 31°56' W 080°45'015.4
2018-Feb-15 12:00N 31°56' W 080°45'612.0
2018-Feb-15 11:30N 32°01' W 080°49'4 0.3
2018-Feb-14 22:35N 32°01' W 080°53'0 0.6
2018-Feb-14 22:29N 32°01' W 080°53'0 0.1
2018-Feb-14 22:00N 32°01' W 080°53'0 0.0
2018-Feb-14 21:28N 32°01' W 080°53'0 0.0
2018-Feb-14 20:58N 32°01' W 080°53'0 0.0
2018-Feb-14 20:05N 32°01' W 080°53'0 0.0
2018-Feb-14 19:53N 32°01' W 080°53'0 0.0
2018-Feb-14 19:30N 32°01' W 080°53'0 0.0
2018-Feb-14 19:00N 32°01' W 080°53'0 0.6
2018-Feb-14 18:30N 32°01' W 080°53'0 0.4
2018-Feb-14 17:59N 32°01' W 080°53'0 0.7
2018-Feb-14 17:30N 32°01' W 080°53'0 0.0
2018-Feb-14 17:00N 32°01' W 080°53'0 0.0
2018-Feb-14 16:29N 32°01' W 080°53'0 0.0
2018-Feb-14 16:00N 32°01' W 080°53'0 0.0
2018-Feb-14 15:30N 32°01' W 080°53'0 0.0
2018-Feb-14 14:59N 32°01' W 080°53'0 0.0
2018-Feb-14 14:30N 32°01' W 080°53'0 0.0
2018-Feb-14 14:00N 32°01' W 080°53'0 0.0
2018-Feb-14 13:30N 32°01' W 080°53'0 0.0
2018-Feb-14 12:58N 32°01' W 080°53'0 0.5
2018-Feb-14 12:30N 32°01' W 080°53'0 0.0
2018-Feb-13 22:04N 32°01' W 080°53'0 0.3
2018-Feb-13 22:01N 32°01' W 080°53'0 0.7
2018-Feb-13 21:30N 32°01' W 080°53'0 0.0
2018-Feb-13 21:00N 32°01' W 080°53'0 0.0
2018-Feb-13 20:28N 32°01' W 080°53'0 0.1
2018-Feb-13 20:00N 32°01' W 080°53'0 0.1
2018-Feb-13 19:30N 32°01' W 080°53'0 0.0
2018-Feb-13 18:59N 32°01' W 080°53'0 0.0
2018-Feb-13 18:30N 32°01' W 080°53'0 0.7
2018-Feb-13 18:00N 32°01' W 080°53'0 0.0
2018-Feb-13 17:30N 32°01' W 080°53'0 0.0
2018-Feb-13 17:01N 32°01' W 080°53'0 0.0
2018-Feb-13 16:31N 32°01' W 080°53'0 0.0
2018-Feb-13 16:01N 32°01' W 080°53'0 0.0
2018-Feb-13 15:31N 32°01' W 080°53'0 0.0
2018-Feb-13 15:01N 32°01' W 080°53'0 0.0
2018-Feb-13 14:31N 32°01' W 080°53'0 0.0
2018-Feb-12 23:07N 32°01' W 080°53'0 2.2
2018-Feb-12 23:00N 32°01' W 080°53'0 0.6
2018-Feb-12 22:30N 32°01' W 080°53'0 0.1
2018-Feb-12 22:00N 32°01' W 080°53'0 0.7
2018-Feb-12 21:30N 32°01' W 080°53'0 0.0
2018-Feb-12 20:59N 32°01' W 080°53'2 3.9
2018-Feb-12 20:30N 32°02' W 080°54'2 3.6
2018-Feb-12 20:00N 32°01' W 080°53'0 0.2
2018-Feb-12 19:30N 32°01' W 080°53'0 0.0
2018-Feb-12 19:01N 32°01' W 080°53'0 0.0
2018-Feb-12 18:30N 32°01' W 080°53'0 0.0
2018-Feb-12 18:00N 32°01' W 080°53'0 0.0
2018-Feb-12 17:30N 32°01' W 080°53'0 0.0
2018-Feb-12 16:56N 32°01' W 080°53'0 0.0
2018-Feb-12 16:29N 32°01' W 080°53'0 0.0
2018-Feb-12 16:01N 32°01' W 080°53'1 2.5
2018-Feb-12 15:29N 32°02' W 080°53'1 2.7
2018-Feb-12 15:00N 32°02' W 080°54'0 0.1
2018-Feb-12 14:29N 32°02' W 080°54'0 0.2
2018-Feb-12 14:01N 32°02' W 080°54'0 0.2
2018-Feb-12 13:30N 32°02' W 080°54'2 2.8
2018-Feb-12 12:55N 32°01' W 080°53'0 0.0
2018-Feb-12 12:30N 32°01' W 080°53'0 0.0
2018-Feb-12 11:59N 32°01' W 080°53'0 0.0
2018-Feb-12 11:29N 32°01' W 080°53'0 0.0
2018-Feb-12 11:00N 32°01' W 080°53'0 0.0
2018-Feb-12 10:30N 32°01' W 080°53'0 0.0
2018-Feb-11 16:39N 32°01' W 080°53'0 0.0
2018-Feb-11 16:31N 32°01' W 080°53'0 0.0
2018-Feb-11 16:01N 32°01' W 080°53'0 0.0
2018-Feb-11 15:29N 32°01' W 080°53'0 0.0
2018-Feb-11 14:56N 32°01' W 080°53'0 0.0
2018-Feb-11 14:30N 32°01' W 080°53'0 0.0
2018-Feb-11 13:58N 32°01' W 080°53'0 0.0
2018-Feb-11 13:30N 32°01' W 080°53'0 0.0
2018-Feb-11 11:37N 32°01' W 080°53'0 0.1
2018-Feb-11 11:30N 32°01' W 080°53'0 0.0
2018-Feb-10 21:24N 32°01' W 080°53'0 0.4
2018-Feb-10 21:00N 32°01' W 080°53'  

Dump ship's entire track history